sensor_id;sensor_type;location;lat;lon;timestamp;temperature;humidity
48206;DHT22;33995;48.202;16.260;2023-07-13T00:00:24;20.60;99.90
48206;DHT22;33995;48.202;16.260;2023-07-13T00:02:51;20.60;99.90
48206;DHT22;33995;48.202;16.260;2023-07-13T00:05:23;20.50;99.90
48206;DHT22;33995;48.202;16.260;2023-07-13T00:07:52;20.50;99.90
48206;DHT22;33995;48.202;16.260;2023-07-13T00:10:19;20.50;99.90
48206;DHT22;33995;48.202;16.260;2023-07-13T00:12:46;20.40;99.90
48206;DHT22;33995;48.202;16.260;2023-07-13T00:15:22;20.40;99.90
48206;DHT22;33995;48.202;16.260;2023-07-13T00:17:51;20.40;99.90
48206;DHT22;33995;48.202;16.260;2023-07-13T00:20:22;20.40;99.90
48206;DHT22;33995;48.202;16.260;2023-07-13T00:22:49;20.40;99.90
48206;DHT22;33995;48.202;16.260;2023-07-13T00:25:16;20.30;99.90
48206;DHT22;33995;48.202;16.260;2023-07-13T00:27:47;20.30;99.90
48206;DHT22;33995;48.202;16.260;2023-07-13T00:30:15;20.30;99.90
48206;DHT22;33995;48.202;16.260;2023-07-13T00:32:43;20.20;99.90
48206;DHT22;33995;48.202;16.260;2023-07-13T00:35:12;20.20;99.90
48206;DHT22;33995;48.202;16.260;2023-07-13T00:37:39;20.20;99.90
48206;DHT22;33995;48.202;16.260;2023-07-13T00:40:07;20.20;99.90
48206;DHT22;33995;48.202;16.260;2023-07-13T00:42:34;20.10;99.90
48206;DHT22;33995;48.202;16.260;2023-07-13T00:47:39;20.10;99.90
48206;DHT22;33995;48.202;16.260;2023-07-13T00:50:11;20.10;99.90
48206;DHT22;33995;48.202;16.260;2023-07-13T00:52:41;20.10;99.90
48206;DHT22;33995;48.202;16.260;2023-07-13T00:55:10;20.10;99.90
48206;DHT22;33995;48.202;16.260;2023-07-13T00:57:38;20.10;99.90
48206;DHT22;33995;48.202;16.260;2023-07-13T01:00:08;20.10;99.90
48206;DHT22;33995;48.202;16.260;2023-07-13T01:02:41;20.10;99.90
48206;DHT22;33995;48.202;16.260;2023-07-13T01:05:14;20.10;99.90
48206;DHT22;33995;48.202;16.260;2023-07-13T01:07:42;20.20;99.90
48206;DHT22;33995;48.202;16.260;2023-07-13T01:10:35;20.30;99.90
48206;DHT22;33995;48.202;16.260;2023-07-13T01:13:10;20.30;99.90
48206;DHT22;33995;48.202;16.260;2023-07-13T01:15:40;20.30;99.90
48206;DHT22;33995;48.202;16.260;2023-07-13T01:18:15;20.40;99.90
48206;DHT22;33995;48.202;16.260;2023-07-13T01:20:54;20.40;99.90
48206;DHT22;33995;48.202;16.260;2023-07-13T01:23:22;20.40;99.90
48206;DHT22;33995;48.202;16.260;2023-07-13T01:25:49;20.50;99.90
48206;DHT22;33995;48.202;16.260;2023-07-13T01:28:16;20.50;99.90
48206;DHT22;33995;48.202;16.260;2023-07-13T01:30:46;20.60;99.90
48206;DHT22;33995;48.202;16.260;2023-07-13T01:33:15;20.60;99.90
48206;DHT22;33995;48.202;16.260;2023-07-13T01:35:44;20.70;99.90
48206;DHT22;33995;48.202;16.260;2023-07-13T01:38:14;20.70;99.90
48206;DHT22;33995;48.202;16.260;2023-07-13T01:40:42;20.70;99.90
48206;DHT22;33995;48.202;16.260;2023-07-13T01:43:09;20.70;99.90
48206;DHT22;33995;48.202;16.260;2023-07-13T01:45:37;20.80;99.90
48206;DHT22;33995;48.202;16.260;2023-07-13T01:48:04;20.80;99.90
48206;DHT22;33995;48.202;16.260;2023-07-13T01:50:34;20.90;99.90
48206;DHT22;33995;48.202;16.260;2023-07-13T01:53:01;21.00;99.90
48206;DHT22;33995;48.202;16.260;2023-07-13T01:55:29;21.00;99.90
48206;DHT22;33995;48.202;16.260;2023-07-13T01:57:56;21.00;99.90
48206;DHT22;33995;48.202;16.260;2023-07-13T02:00:24;21.00;99.90
48206;DHT22;33995;48.202;16.260;2023-07-13T02:02:51;21.10;99.90
48206;DHT22;33995;48.202;16.260;2023-07-13T02:05:19;21.10;99.90
48206;DHT22;33995;48.202;16.260;2023-07-13T02:07:47;21.20;99.90
48206;DHT22;33995;48.202;16.260;2023-07-13T02:10:14;21.20;99.90
48206;DHT22;33995;48.202;16.260;2023-07-13T02:12:42;21.30;99.90
48206;DHT22;33995;48.202;16.260;2023-07-13T02:15:09;21.30;99.90
48206;DHT22;33995;48.202;16.260;2023-07-13T02:17:37;21.40;99.90
48206;DHT22;33995;48.202;16.260;2023-07-13T02:20:05;21.40;99.90
48206;DHT22;33995;48.202;16.260;2023-07-13T02:22:32;21.50;99.90
48206;DHT22;33995;48.202;16.260;2023-07-13T02:24:59;21.50;99.90
48206;DHT22;33995;48.202;16.260;2023-07-13T02:27:26;21.60;99.90
48206;DHT22;33995;48.202;16.260;2023-07-13T02:29:53;21.60;99.90
48206;DHT22;33995;48.202;16.260;2023-07-13T02:32:21;21.60;99.90
48206;DHT22;33995;48.202;16.260;2023-07-13T02:34:51;21.70;99.90
48206;DHT22;33995;48.202;16.260;2023-07-13T02:37:19;21.70;99.90
48206;DHT22;33995;48.202;16.260;2023-07-13T02:39:46;21.70;99.90
48206;DHT22;33995;48.202;16.260;2023-07-13T02:42:14;21.70;99.90
48206;DHT22;33995;48.202;16.260;2023-07-13T02:44:43;21.70;99.90
48206;DHT22;33995;48.202;16.260;2023-07-13T02:47:10;21.70;99.90
48206;DHT22;33995;48.202;16.260;2023-07-13T02:49:38;21.70;99.90
48206;DHT22;33995;48.202;16.260;2023-07-13T02:52:05;21.80;99.90
48206;DHT22;33995;48.202;16.260;2023-07-13T02:54:32;21.80;99.90
48206;DHT22;33995;48.202;16.260;2023-07-13T02:56:59;21.80;99.90
48206;DHT22;33995;48.202;16.260;2023-07-13T02:59:26;21.70;99.90
48206;DHT22;33995;48.202;16.260;2023-07-13T03:01:53;21.70;99.90
48206;DHT22;33995;48.202;16.260;2023-07-13T03:04:20;21.70;99.90
48206;DHT22;33995;48.202;16.260;2023-07-13T03:06:47;21.60;99.90
48206;DHT22;33995;48.202;16.260;2023-07-13T03:09:15;21.60;99.90
48206;DHT22;33995;48.202;16.260;2023-07-13T03:11:47;21.60;99.90
48206;DHT22;33995;48.202;16.260;2023-07-13T03:14:23;21.50;99.90
48206;DHT22;33995;48.202;16.260;2023-07-13T03:16:50;21.40;99.90
48206;DHT22;33995;48.202;16.260;2023-07-13T03:19:22;21.40;99.90
48206;DHT22;33995;48.202;16.260;2023-07-13T03:21:50;21.30;99.90
48206;DHT22;33995;48.202;16.260;2023-07-13T03:24:17;21.30;99.90
48206;DHT22;33995;48.202;16.260;2023-07-13T03:26:44;21.20;99.90
48206;DHT22;33995;48.202;16.260;2023-07-13T03:29:12;21.10;99.90
48206;DHT22;33995;48.202;16.260;2023-07-13T03:31:39;21.00;99.90
48206;DHT22;33995;48.202;16.260;2023-07-13T03:34:07;20.90;99.90
48206;DHT22;33995;48.202;16.260;2023-07-13T03:36:36;20.80;99.90
48206;DHT22;33995;48.202;16.260;2023-07-13T03:39:06;20.70;99.90
48206;DHT22;33995;48.202;16.260;2023-07-13T03:41:46;20.70;99.90
48206;DHT22;33995;48.202;16.260;2023-07-13T03:44:16;20.60;99.90
48206;DHT22;33995;48.202;16.260;2023-07-13T03:46:44;20.50;99.90
48206;DHT22;33995;48.202;16.260;2023-07-13T03:49:13;20.50;99.90
48206;DHT22;33995;48.202;16.260;2023-07-13T03:51:40;20.40;99.90
48206;DHT22;33995;48.202;16.260;2023-07-13T03:54:07;20.30;99.90
48206;DHT22;33995;48.202;16.260;2023-07-13T03:56:34;20.30;99.90
48206;DHT22;33995;48.202;16.260;2023-07-13T03:59:03;20.30;99.90
48206;DHT22;33995;48.202;16.260;2023-07-13T04:01:30;20.20;99.90
48206;DHT22;33995;48.202;16.260;2023-07-13T04:03:57;20.10;99.90
48206;DHT22;33995;48.202;16.260;2023-07-13T04:06:31;20.00;99.90
48206;DHT22;33995;48.202;16.260;2023-07-13T04:09:01;20.00;99.90
48206;DHT22;33995;48.202;16.260;2023-07-13T04:11:30;19.90;99.90
48206;DHT22;33995;48.202;16.260;2023-07-13T04:14:00;19.90;99.90
48206;DHT22;33995;48.202;16.260;2023-07-13T04:16:27;19.90;99.90
48206;DHT22;33995;48.202;16.260;2023-07-13T04:18:54;19.90;99.90
48206;DHT22;33995;48.202;16.260;2023-07-13T04:21:30;19.90;99.90
48206;DHT22;33995;48.202;16.260;2023-07-13T04:23:58;19.80;99.90
48206;DHT22;33995;48.202;16.260;2023-07-13T04:26:25;19.80;99.90
48206;DHT22;33995;48.202;16.260;2023-07-13T04:28:52;19.80;99.90
48206;DHT22;33995;48.202;16.260;2023-07-13T04:31:19;19.80;99.90
48206;DHT22;33995;48.202;16.260;2023-07-13T04:33:47;19.80;99.90
48206;DHT22;33995;48.202;16.260;2023-07-13T04:36:15;19.80;99.90
48206;DHT22;33995;48.202;16.260;2023-07-13T04:38:43;19.80;99.90
48206;DHT22;33995;48.202;16.260;2023-07-13T04:41:10;19.80;99.90
48206;DHT22;33995;48.202;16.260;2023-07-13T04:43:37;19.70;99.90
48206;DHT22;33995;48.202;16.260;2023-07-13T04:46:06;19.70;99.90
48206;DHT22;33995;48.202;16.260;2023-07-13T04:48:34;19.70;99.90
48206;DHT22;33995;48.202;16.260;2023-07-13T04:51:04;19.70;99.90
48206;DHT22;33995;48.202;16.260;2023-07-13T04:53:32;19.70;99.90
48206;DHT22;33995;48.202;16.260;2023-07-13T04:56:03;19.70;99.90
48206;DHT22;33995;48.202;16.260;2023-07-13T04:58:31;19.80;99.90
48206;DHT22;33995;48.202;16.260;2023-07-13T05:01:02;19.70;99.90
48206;DHT22;33995;48.202;16.260;2023-07-13T05:03:30;19.80;99.90
48206;DHT22;33995;48.202;16.260;2023-07-13T05:06:02;19.80;99.90
48206;DHT22;33995;48.202;16.260;2023-07-13T05:08:30;19.70;99.90
48206;DHT22;33995;48.202;16.260;2023-07-13T05:11:00;19.80;99.90
48206;DHT22;33995;48.202;16.260;2023-07-13T05:13:27;19.70;99.90
48206;DHT22;33995;48.202;16.260;2023-07-13T05:15:59;19.60;99.90
48206;DHT22;33995;48.202;16.260;2023-07-13T05:18:26;19.70;99.90
48206;DHT22;33995;48.202;16.260;2023-07-13T05:20:58;19.70;99.90
48206;DHT22;33995;48.202;16.260;2023-07-13T05:23:26;19.70;99.90
48206;DHT22;33995;48.202;16.260;2023-07-13T05:25:52;19.70;99.90
48206;DHT22;33995;48.202;16.260;2023-07-13T05:28:19;19.80;99.90
48206;DHT22;33995;48.202;16.260;2023-07-13T05:30:48;19.80;99.90
48206;DHT22;33995;48.202;16.260;2023-07-13T05:33:15;19.80;99.90
48206;DHT22;33995;48.202;16.260;2023-07-13T05:35:42;19.90;99.90
48206;DHT22;33995;48.202;16.260;2023-07-13T05:38:09;20.00;99.90
48206;DHT22;33995;48.202;16.260;2023-07-13T05:40:36;19.90;99.90
48206;DHT22;33995;48.202;16.260;2023-07-13T05:43:03;19.90;99.90
48206;DHT22;33995;48.202;16.260;2023-07-13T05:45:30;19.90;99.90
48206;DHT22;33995;48.202;16.260;2023-07-13T05:47:57;19.90;99.90
48206;DHT22;33995;48.202;16.260;2023-07-13T05:50:26;19.90;99.90
48206;DHT22;33995;48.202;16.260;2023-07-13T05:52:53;19.90;99.90
48206;DHT22;33995;48.202;16.260;2023-07-13T05:55:23;19.90;99.90
48206;DHT22;33995;48.202;16.260;2023-07-13T05:57:50;19.80;99.90
48206;DHT22;33995;48.202;16.260;2023-07-13T06:00:17;19.80;99.90
48206;DHT22;33995;48.202;16.260;2023-07-13T06:02:44;19.80;99.90
48206;DHT22;33995;48.202;16.260;2023-07-13T06:05:11;19.80;99.90
48206;DHT22;33995;48.202;16.260;2023-07-13T06:07:38;19.90;99.90
48206;DHT22;33995;48.202;16.260;2023-07-13T06:10:07;19.90;99.90
48206;DHT22;33995;48.202;16.260;2023-07-13T06:12:34;19.80;99.90
48206;DHT22;33995;48.202;16.260;2023-07-13T06:15:01;19.80;99.90
48206;DHT22;33995;48.202;16.260;2023-07-13T06:17:28;19.80;99.90
48206;DHT22;33995;48.202;16.260;2023-07-13T06:19:55;19.90;99.90
48206;DHT22;33995;48.202;16.260;2023-07-13T06:22:22;20.00;99.90
48206;DHT22;33995;48.202;16.260;2023-07-13T06:24:49;20.00;99.90
48206;DHT22;33995;48.202;16.260;2023-07-13T06:27:18;20.10;99.90
48206;DHT22;33995;48.202;16.260;2023-07-13T06:29:45;20.00;99.90
48206;DHT22;33995;48.202;16.260;2023-07-13T06:32:12;20.10;99.90
48206;DHT22;33995;48.202;16.260;2023-07-13T06:34:39;20.10;99.90
48206;DHT22;33995;48.202;16.260;2023-07-13T06:37:11;20.10;99.90
48206;DHT22;33995;48.202;16.260;2023-07-13T06:39:41;20.10;99.90
48206;DHT22;33995;48.202;16.260;2023-07-13T06:42:11;20.10;99.90
48206;DHT22;33995;48.202;16.260;2023-07-13T06:44:40;20.10;99.90
48206;DHT22;33995;48.202;16.260;2023-07-13T06:47:10;20.10;99.90
48206;DHT22;33995;48.202;16.260;2023-07-13T06:49:38;20.20;99.90
48206;DHT22;33995;48.202;16.260;2023-07-13T06:52:05;20.20;99.90
48206;DHT22;33995;48.202;16.260;2023-07-13T06:54:33;20.20;99.90
48206;DHT22;33995;48.202;16.260;2023-07-13T06:57:02;20.20;99.90
48206;DHT22;33995;48.202;16.260;2023-07-13T06:59:32;20.20;99.90
48206;DHT22;33995;48.202;16.260;2023-07-13T07:01:59;20.20;99.90
48206;DHT22;33995;48.202;16.260;2023-07-13T07:04:32;20.30;99.90
48206;DHT22;33995;48.202;16.260;2023-07-13T07:06:59;20.30;99.90
48206;DHT22;33995;48.202;16.260;2023-07-13T07:09:26;20.30;99.90
48206;DHT22;33995;48.202;16.260;2023-07-13T07:11:53;20.40;99.90
48206;DHT22;33995;48.202;16.260;2023-07-13T07:14:30;20.40;99.90
48206;DHT22;33995;48.202;16.260;2023-07-13T07:16:57;20.50;99.90
48206;DHT22;33995;48.202;16.260;2023-07-13T07:19:26;20.50;99.90
48206;DHT22;33995;48.202;16.260;2023-07-13T07:21:53;20.50;99.90
48206;DHT22;33995;48.202;16.260;2023-07-13T07:24:20;20.50;99.90
48206;DHT22;33995;48.202;16.260;2023-07-13T07:26:47;20.50;99.90
48206;DHT22;33995;48.202;16.260;2023-07-13T07:29:17;20.40;99.90
48206;DHT22;33995;48.202;16.260;2023-07-13T07:31:46;20.50;99.90
48206;DHT22;33995;48.202;16.260;2023-07-13T07:34:30;20.50;99.90
48206;DHT22;33995;48.202;16.260;2023-07-13T07:37:00;20.50;99.90
48206;DHT22;33995;48.202;16.260;2023-07-13T07:39:33;20.60;99.90
48206;DHT22;33995;48.202;16.260;2023-07-13T07:42:00;20.60;99.90
48206;DHT22;33995;48.202;16.260;2023-07-13T07:44:27;20.60;99.90
48206;DHT22;33995;48.202;16.260;2023-07-13T07:46:55;20.60;99.90
48206;DHT22;33995;48.202;16.260;2023-07-13T07:49:22;20.70;99.90
48206;DHT22;33995;48.202;16.260;2023-07-13T07:51:49;20.70;99.90
48206;DHT22;33995;48.202;16.260;2023-07-13T07:54:16;20.80;99.90
48206;DHT22;33995;48.202;16.260;2023-07-13T07:57:03;20.80;99.90
48206;DHT22;33995;48.202;16.260;2023-07-13T07:59:36;20.90;99.90
48206;DHT22;33995;48.202;16.260;2023-07-13T08:02:09;21.00;99.90
48206;DHT22;33995;48.202;16.260;2023-07-13T08:04:57;21.00;99.90
48206;DHT22;33995;48.202;16.260;2023-07-13T08:07:27;21.10;99.90
48206;DHT22;33995;48.202;16.260;2023-07-13T08:09:54;21.10;99.90
48206;DHT22;33995;48.202;16.260;2023-07-13T08:12:21;21.10;99.90
48206;DHT22;33995;48.202;16.260;2023-07-13T08:14:51;21.20;99.90
48206;DHT22;33995;48.202;16.260;2023-07-13T08:17:25;21.30;99.90
48206;DHT22;33995;48.202;16.260;2023-07-13T08:19:53;21.80;99.90
48206;DHT22;33995;48.202;16.260;2023-07-13T08:22:20;22.10;99.90
48206;DHT22;33995;48.202;16.260;2023-07-13T08:24:47;22.30;99.90
48206;DHT22;33995;48.202;16.260;2023-07-13T08:27:23;22.40;99.90
48206;DHT22;33995;48.202;16.260;2023-07-13T08:29:51;22.40;99.90
48206;DHT22;33995;48.202;16.260;2023-07-13T08:32:20;22.40;99.90
48206;DHT22;33995;48.202;16.260;2023-07-13T08:34:47;22.40;99.90
48206;DHT22;33995;48.202;16.260;2023-07-13T08:37:16;22.40;99.90
48206;DHT22;33995;48.202;16.260;2023-07-13T08:39:43;22.50;99.90
48206;DHT22;33995;48.202;16.260;2023-07-13T08:47:55;22.90;99.90
48206;DHT22;33995;48.202;16.260;2023-07-13T08:50:27;23.10;99.90
48206;DHT22;33995;48.202;16.260;2023-07-13T08:52:58;23.30;99.90
48206;DHT22;33995;48.202;16.260;2023-07-13T08:55:33;23.40;99.90
48206;DHT22;33995;48.202;16.260;2023-07-13T08:58:09;23.60;99.90
48206;DHT22;33995;48.202;16.260;2023-07-13T09:03:41;23.90;99.90
48206;DHT22;33995;48.202;16.260;2023-07-13T09:06:12;24.00;99.90
48206;DHT22;33995;48.202;16.260;2023-07-13T09:09:02;23.90;99.90
48206;DHT22;33995;48.202;16.260;2023-07-13T09:11:37;24.00;99.90
48206;DHT22;33995;48.202;16.260;2023-07-13T09:16:39;24.10;99.90
48206;DHT22;33995;48.202;16.260;2023-07-13T09:19:13;24.10;99.90
48206;DHT22;33995;48.202;16.260;2023-07-13T09:21:43;24.10;99.90
48206;DHT22;33995;48.202;16.260;2023-07-13T09:26:55;24.30;99.90
48206;DHT22;33995;48.202;16.260;2023-07-13T09:29:35;24.30;99.90
48206;DHT22;33995;48.202;16.260;2023-07-13T09:32:06;24.20;99.90
48206;DHT22;33995;48.202;16.260;2023-07-13T09:34:34;24.20;99.90
48206;DHT22;33995;48.202;16.260;2023-07-13T09:37:01;24.30;99.90
48206;DHT22;33995;48.202;16.260;2023-07-13T09:39:38;24.50;99.90
48206;DHT22;33995;48.202;16.260;2023-07-13T09:42:19;24.80;99.90
48206;DHT22;33995;48.202;16.260;2023-07-13T09:44:56;25.00;99.90
48206;DHT22;33995;48.202;16.260;2023-07-13T09:47:27;25.10;99.90
48206;DHT22;33995;48.202;16.260;2023-07-13T09:52:47;25.50;99.90
48206;DHT22;33995;48.202;16.260;2023-07-13T09:55:31;25.60;99.90
48206;DHT22;33995;48.202;16.260;2023-07-13T09:58:19;25.70;99.90
48206;DHT22;33995;48.202;16.260;2023-07-13T10:01:03;25.80;99.90
48206;DHT22;33995;48.202;16.260;2023-07-13T10:03:36;25.90;99.90
48206;DHT22;33995;48.202;16.260;2023-07-13T10:06:17;25.90;99.90
48206;DHT22;33995;48.202;16.260;2023-07-13T10:08:46;25.80;99.90
48206;DHT22;33995;48.202;16.260;2023-07-13T10:11:42;26.00;99.90
48206;DHT22;33995;48.202;16.260;2023-07-13T10:14:16;26.10;99.90
48206;DHT22;33995;48.202;16.260;2023-07-13T10:16:45;26.20;99.90
48206;DHT22;33995;48.202;16.260;2023-07-13T10:19:25;26.30;99.90
48206;DHT22;33995;48.202;16.260;2023-07-13T10:22:02;26.40;99.90
48206;DHT22;33995;48.202;16.260;2023-07-13T10:24:32;26.40;99.90
48206;DHT22;33995;48.202;16.260;2023-07-13T10:27:20;26.50;99.90
48206;DHT22;33995;48.202;16.260;2023-07-13T10:32:24;26.80;99.90
48206;DHT22;33995;48.202;16.260;2023-07-13T10:34:52;26.70;99.90
48206;DHT22;33995;48.202;16.260;2023-07-13T10:37:24;26.50;99.90
48206;DHT22;33995;48.202;16.260;2023-07-13T10:39:55;26.40;99.90
48206;DHT22;33995;48.202;16.260;2023-07-13T10:42:40;26.20;99.90
48206;DHT22;33995;48.202;16.260;2023-07-13T10:45:20;26.20;99.90
48206;DHT22;33995;48.202;16.260;2023-07-13T10:47:50;26.10;99.90
48206;DHT22;33995;48.202;16.260;2023-07-13T10:50:22;26.10;99.90
48206;DHT22;33995;48.202;16.260;2023-07-13T10:52:52;26.00;99.90
48206;DHT22;33995;48.202;16.260;2023-07-13T10:55:40;26.00;99.90
48206;DHT22;33995;48.202;16.260;2023-07-13T10:58:29;26.00;99.90
48206;DHT22;33995;48.202;16.260;2023-07-13T11:01:14;26.00;99.90
48206;DHT22;33995;48.202;16.260;2023-07-13T11:11:58;26.00;99.90
48206;DHT22;33995;48.202;16.260;2023-07-13T11:17:37;26.20;99.90
48206;DHT22;33995;48.202;16.260;2023-07-13T11:20:35;26.10;99.90
48206;DHT22;33995;48.202;16.260;2023-07-13T11:25:38;26.00;99.90
48206;DHT22;33995;48.202;16.260;2023-07-13T11:28:11;26.00;99.90
48206;DHT22;33995;48.202;16.260;2023-07-13T11:35:50;26.40;99.90
48206;DHT22;33995;48.202;16.260;2023-07-13T11:38:35;26.50;99.90
48206;DHT22;33995;48.202;16.260;2023-07-13T11:41:17;26.50;99.90
48206;DHT22;33995;48.202;16.260;2023-07-13T11:43:46;26.60;99.90
48206;DHT22;33995;48.202;16.260;2023-07-13T11:46:24;26.70;99.90
48206;DHT22;33995;48.202;16.260;2023-07-13T11:48:52;26.80;99.90
48206;DHT22;33995;48.202;16.260;2023-07-13T11:51:28;26.90;99.90
48206;DHT22;33995;48.202;16.260;2023-07-13T11:54:01;27.00;99.90
48206;DHT22;33995;48.202;16.260;2023-07-13T11:56:29;27.20;99.90
48206;DHT22;33995;48.202;16.260;2023-07-13T11:58:57;27.20;99.90
48206;DHT22;33995;48.202;16.260;2023-07-13T12:01:27;27.30;99.90
48206;DHT22;33995;48.202;16.260;2023-07-13T12:04:02;27.50;99.90
48206;DHT22;33995;48.202;16.260;2023-07-13T12:06:36;27.50;99.90
48206;DHT22;33995;48.202;16.260;2023-07-13T12:09:14;27.50;99.90
48206;DHT22;33995;48.202;16.260;2023-07-13T12:11:43;27.50;99.90
48206;DHT22;33995;48.202;16.260;2023-07-13T12:14:17;27.60;99.90
48206;DHT22;33995;48.202;16.260;2023-07-13T12:16:47;27.40;99.90
48206;DHT22;33995;48.202;16.260;2023-07-13T12:19:21;27.40;99.90
48206;DHT22;33995;48.202;16.260;2023-07-13T12:21:52;27.40;99.90
48206;DHT22;33995;48.202;16.260;2023-07-13T12:24:21;27.40;99.90
48206;DHT22;33995;48.202;16.260;2023-07-13T12:27:01;27.40;99.90
48206;DHT22;33995;48.202;16.260;2023-07-13T12:29:30;27.50;99.90
48206;DHT22;33995;48.202;16.260;2023-07-13T12:31:58;27.50;99.90
48206;DHT22;33995;48.202;16.260;2023-07-13T12:34:26;27.40;99.90
48206;DHT22;33995;48.202;16.260;2023-07-13T12:36:54;27.40;99.90
48206;DHT22;33995;48.202;16.260;2023-07-13T12:39:25;27.40;99.90
48206;DHT22;33995;48.202;16.260;2023-07-13T12:41:53;27.20;99.90
48206;DHT22;33995;48.202;16.260;2023-07-13T12:44:31;27.40;99.90
48206;DHT22;33995;48.202;16.260;2023-07-13T12:47:04;27.40;99.90
48206;DHT22;33995;48.202;16.260;2023-07-13T12:49:44;27.50;99.90
48206;DHT22;33995;48.202;16.260;2023-07-13T12:52:30;27.60;99.90
48206;DHT22;33995;48.202;16.260;2023-07-13T12:55:09;27.60;99.90
48206;DHT22;33995;48.202;16.260;2023-07-13T12:57:53;27.50;99.90
48206;DHT22;33995;48.202;16.260;2023-07-13T13:00:33;27.40;99.90
48206;DHT22;33995;48.202;16.260;2023-07-13T13:03:25;27.20;99.90
48206;DHT22;33995;48.202;16.260;2023-07-13T13:06:07;27.10;99.90
48206;DHT22;33995;48.202;16.260;2023-07-13T13:08:50;27.10;99.90
48206;DHT22;33995;48.202;16.260;2023-07-13T13:11:20;27.20;99.90
48206;DHT22;33995;48.202;16.260;2023-07-13T13:13:47;27.10;99.90
48206;DHT22;33995;48.202;16.260;2023-07-13T13:16:28;27.00;99.90
48206;DHT22;33995;48.202;16.260;2023-07-13T13:19:01;27.00;99.90
48206;DHT22;33995;48.202;16.260;2023-07-13T13:21:30;27.10;99.90
48206;DHT22;33995;48.202;16.260;2023-07-13T13:23:58;27.10;99.90
48206;DHT22;33995;48.202;16.260;2023-07-13T13:26:25;27.30;99.90
48206;DHT22;33995;48.202;16.260;2023-07-13T13:28:52;27.30;99.90
48206;DHT22;33995;48.202;16.260;2023-07-13T13:31:20;27.40;99.90
48206;DHT22;33995;48.202;16.260;2023-07-13T13:33:47;27.30;99.90
48206;DHT22;33995;48.202;16.260;2023-07-13T13:36:20;27.30;99.90
48206;DHT22;33995;48.202;16.260;2023-07-13T13:38:48;27.30;99.90
48206;DHT22;33995;48.202;16.260;2023-07-13T13:41:16;27.20;99.90
48206;DHT22;33995;48.202;16.260;2023-07-13T13:43:43;27.20;99.90
48206;DHT22;33995;48.202;16.260;2023-07-13T13:46:24;27.10;99.90
48206;DHT22;33995;48.202;16.260;2023-07-13T13:48:52;27.10;99.90
48206;DHT22;33995;48.202;16.260;2023-07-13T13:51:21;27.10;99.90
48206;DHT22;33995;48.202;16.260;2023-07-13T13:53:48;27.20;99.90
48206;DHT22;33995;48.202;16.260;2023-07-13T13:56:18;27.20;99.90
48206;DHT22;33995;48.202;16.260;2023-07-13T13:58:46;27.20;99.90
48206;DHT22;33995;48.202;16.260;2023-07-13T14:01:22;27.20;99.90
48206;DHT22;33995;48.202;16.260;2023-07-13T14:03:51;27.10;99.90
48206;DHT22;33995;48.202;16.260;2023-07-13T14:06:18;27.10;99.90
48206;DHT22;33995;48.202;16.260;2023-07-13T14:08:45;27.10;99.90
48206;DHT22;33995;48.202;16.260;2023-07-13T14:11:17;27.10;99.90
48206;DHT22;33995;48.202;16.260;2023-07-13T14:13:54;26.90;99.90
48206;DHT22;33995;48.202;16.260;2023-07-13T14:16:24;26.80;99.90
48206;DHT22;33995;48.202;16.260;2023-07-13T14:18:55;26.60;99.90
48206;DHT22;33995;48.202;16.260;2023-07-13T14:21:26;26.60;99.90
48206;DHT22;33995;48.202;16.260;2023-07-13T14:23:53;26.60;99.90
48206;DHT22;33995;48.202;16.260;2023-07-13T14:26:24;26.50;99.90
48206;DHT22;33995;48.202;16.260;2023-07-13T14:28:54;26.40;99.90
48206;DHT22;33995;48.202;16.260;2023-07-13T14:31:24;26.40;99.90
48206;DHT22;33995;48.202;16.260;2023-07-13T14:33:56;26.40;99.90
48206;DHT22;33995;48.202;16.260;2023-07-13T14:38:54;26.40;99.90
48206;DHT22;33995;48.202;16.260;2023-07-13T14:41:22;26.50;99.90
48206;DHT22;33995;48.202;16.260;2023-07-13T14:43:50;26.40;99.90
48206;DHT22;33995;48.202;16.260;2023-07-13T14:46:33;26.50;99.90
48206;DHT22;33995;48.202;16.260;2023-07-13T14:49:07;26.40;99.90
48206;DHT22;33995;48.202;16.260;2023-07-13T14:51:39;26.30;99.90
48206;DHT22;33995;48.202;16.260;2023-07-13T14:54:08;26.10;99.90
48206;DHT22;33995;48.202;16.260;2023-07-13T14:56:37;26.10;99.90
48206;DHT22;33995;48.202;16.260;2023-07-13T14:59:04;25.90;99.90
48206;DHT22;33995;48.202;16.260;2023-07-13T15:01:32;25.80;99.90
48206;DHT22;33995;48.202;16.260;2023-07-13T15:04:01;25.70;99.90
48206;DHT22;33995;48.202;16.260;2023-07-13T15:06:30;25.70;99.90
48206;DHT22;33995;48.202;16.260;2023-07-13T15:08:58;25.70;99.90
48206;DHT22;33995;48.202;16.260;2023-07-13T15:11:28;25.60;99.90
48206;DHT22;33995;48.202;16.260;2023-07-13T15:13:55;25.60;99.90
48206;DHT22;33995;48.202;16.260;2023-07-13T15:16:25;25.70;99.90
48206;DHT22;33995;48.202;16.260;2023-07-13T15:18:53;25.70;99.90
48206;DHT22;33995;48.202;16.260;2023-07-13T15:21:23;25.60;99.90
48206;DHT22;33995;48.202;16.260;2023-07-13T15:23:51;25.60;99.90
48206;DHT22;33995;48.202;16.260;2023-07-13T15:26:19;25.60;99.90
48206;DHT22;33995;48.202;16.260;2023-07-13T15:28:47;25.60;99.90
48206;DHT22;33995;48.202;16.260;2023-07-13T15:31:20;25.60;99.90
48206;DHT22;33995;48.202;16.260;2023-07-13T15:33:52;25.50;99.90
48206;DHT22;33995;48.202;16.260;2023-07-13T15:36:21;25.50;99.90
48206;DHT22;33995;48.202;16.260;2023-07-13T15:38:52;25.40;99.90
48206;DHT22;33995;48.202;16.260;2023-07-13T15:41:25;25.40;99.90
48206;DHT22;33995;48.202;16.260;2023-07-13T15:43:54;25.30;99.90
48206;DHT22;33995;48.202;16.260;2023-07-13T15:46:23;25.30;99.90
48206;DHT22;33995;48.202;16.260;2023-07-13T15:48:52;25.20;99.90
48206;DHT22;33995;48.202;16.260;2023-07-13T15:53:59;25.10;99.90
48206;DHT22;33995;48.202;16.260;2023-07-13T15:56:27;25.10;99.90
48206;DHT22;33995;48.202;16.260;2023-07-13T15:58:56;25.00;99.90
48206;DHT22;33995;48.202;16.260;2023-07-13T16:01:24;25.00;99.90
48206;DHT22;33995;48.202;16.260;2023-07-13T16:03:51;24.90;99.90
48206;DHT22;33995;48.202;16.260;2023-07-13T16:06:23;24.90;99.90
48206;DHT22;33995;48.202;16.260;2023-07-13T16:08:52;24.80;99.90
48206;DHT22;33995;48.202;16.260;2023-07-13T16:11:25;24.80;99.90
48206;DHT22;33995;48.202;16.260;2023-07-13T16:13:53;24.60;99.90
48206;DHT22;33995;48.202;16.260;2023-07-13T16:16:25;24.50;99.90
48206;DHT22;33995;48.202;16.260;2023-07-13T16:18:57;24.50;99.90
48206;DHT22;33995;48.202;16.260;2023-07-13T16:21:26;24.40;99.90